createdAt,value
2023-05-15T00:01:30.860Z,99.90
2023-05-15T00:04:34.091Z,99.90
2023-05-15T00:07:39.509Z,99.90
2023-05-15T00:10:50.475Z,99.90
2023-05-15T00:14:03.129Z,99.90
2023-05-15T00:17:06.606Z,99.90
2023-05-15T00:20:10.343Z,99.90
2023-05-15T00:23:14.892Z,99.90
2023-05-15T00:26:18.032Z,99.90
2023-05-15T00:29:21.160Z,99.90
2023-05-15T00:32:24.349Z,99.90
2023-05-15T00:35:27.502Z,99.90
2023-05-15T00:38:33.606Z,99.90
2023-05-15T00:41:37.784Z,99.90
2023-05-15T00:44:42.571Z,99.90
2023-05-15T00:47:46.781Z,99.90
2023-05-15T00:50:51.561Z,99.90
2023-05-15T00:53:56.808Z,99.90
2023-05-15T00:57:01.175Z,99.90
2023-05-15T01:00:07.147Z,99.90
2023-05-15T01:03:10.643Z,99.90
2023-05-15T01:06:14.289Z,99.90
2023-05-15T01:09:19.845Z,99.90
2023-05-15T01:12:27.054Z,99.90
2023-05-15T01:15:30.133Z,99.90
2023-05-15T01:18:33.606Z,99.90
2023-05-15T01:21:58.795Z,99.90
2023-05-15T01:25:31.705Z,99.90
2023-05-15T01:28:42.582Z,99.90
2023-05-15T01:31:50.611Z,99.90
2023-05-15T01:34:59.156Z,99.90
2023-05-15T01:38:14.214Z,99.90
2023-05-15T01:41:22.286Z,99.90
2023-05-15T01:44:30.144Z,99.90
2023-05-15T01:47:37.780Z,99.90
2023-05-15T01:50:42.095Z,99.90
2023-05-15T01:53:46.649Z,99.90
2023-05-15T01:56:50.763Z,99.90
2023-05-15T01:59:56.521Z,99.90
2023-05-15T02:03:00.701Z,99.90
2023-05-15T02:06:06.028Z,99.90
2023-05-15T02:09:10.510Z,99.90
2023-05-15T02:12:14.629Z,99.90
2023-05-15T02:15:19.907Z,99.90
2023-05-15T02:18:23.407Z,99.90
2023-05-15T02:21:27.373Z,99.90
2023-05-15T02:24:30.487Z,99.90
2023-05-15T02:27:40.054Z,99.90
2023-05-15T02:30:55.018Z,99.90
2023-05-15T02:34:10.033Z,99.90
2023-05-15T02:37:18.254Z,99.90
2023-05-15T02:40:24.029Z,99.90
2023-05-15T02:43:28.375Z,99.90
2023-05-15T02:46:33.549Z,99.90
2023-05-15T02:49:37.631Z,99.90
2023-05-15T02:52:40.764Z,99.90
2023-05-15T02:55:43.853Z,99.90
2023-05-15T02:58:47.089Z,99.90
2023-05-15T03:01:52.187Z,99.90
2023-05-15T03:04:55.436Z,99.90
2023-05-15T03:07:59.400Z,99.90
2023-05-15T03:11:02.502Z,99.90
2023-05-15T03:14:05.549Z,99.90
2023-05-15T03:17:10.103Z,99.90
2023-05-15T03:20:16.429Z,99.90
2023-05-15T03:23:19.560Z,99.90
2023-05-15T03:26:23.169Z,99.90
2023-05-15T03:29:26.277Z,99.90
2023-05-15T03:32:30.818Z,99.90
2023-05-15T03:35:33.947Z,99.90
2023-05-15T03:38:37.123Z,99.90
2023-05-15T03:41:40.249Z,99.90
2023-05-15T03:44:43.439Z,99.90
2023-05-15T03:47:48.456Z,99.90
2023-05-15T03:50:53.375Z,99.90
2023-05-15T03:53:56.604Z,99.90
2023-05-15T03:56:59.781Z,99.90
2023-05-15T04:00:07.433Z,99.90
2023-05-15T04:03:11.979Z,99.90
2023-05-15T04:06:15.226Z,99.90
2023-05-15T04:09:18.387Z,99.90
2023-05-15T04:12:22.260Z,99.90
2023-05-15T04:15:28.746Z,99.90
2023-05-15T04:18:33.357Z,99.90
2023-05-15T04:21:36.513Z,99.90
2023-05-15T04:24:39.568Z,99.90
2023-05-15T04:27:43.777Z,99.90
2023-05-15T04:30:46.956Z,99.90
2023-05-15T04:33:51.483Z,99.90
2023-05-15T04:36:54.590Z,99.90
2023-05-15T04:39:57.740Z,99.90
2023-05-15T04:43:00.845Z,99.90
2023-05-15T04:46:04.046Z,99.90
2023-05-15T04:49:08.647Z,99.90
2023-05-15T04:52:12.134Z,99.90
2023-05-15T04:55:15.270Z,99.90
2023-05-15T04:58:18.423Z,99.90
2023-05-15T05:01:24.401Z,99.90
2023-05-15T05:04:28.906Z,99.90
2023-05-15T05:07:32.083Z,99.90
2023-05-15T05:10:35.221Z,99.90
2023-05-15T05:13:38.336Z,99.90
2023-05-15T05:16:41.896Z,99.90
2023-05-15T05:19:46.440Z,99.90
2023-05-15T05:22:49.553Z,99.90
2023-05-15T05:25:55.512Z,99.90
2023-05-15T05:28:58.705Z,99.90
2023-05-15T05:32:02.286Z,99.90
2023-05-15T05:35:07.437Z,99.90
2023-05-15T05:38:10.528Z,99.90
2023-05-15T05:41:13.640Z,99.90
2023-05-15T05:44:16.744Z,99.90
2023-05-15T05:47:19.916Z,99.90
2023-05-15T05:50:24.793Z,99.90
2023-05-15T05:53:27.927Z,99.90
2023-05-15T05:56:31.163Z,99.90
2023-05-15T05:59:34.248Z,99.90
2023-05-15T06:02:38.252Z,99.90
2023-05-15T06:05:42.895Z,99.90
2023-05-15T06:08:46.057Z,99.90
2023-05-15T06:11:49.237Z,99.00
2023-05-15T06:14:52.513Z,96.80
2023-05-15T06:17:55.697Z,95.90
2023-05-15T06:21:00.617Z,95.40
2023-05-15T06:24:03.801Z,93.70
2023-05-15T06:27:07.168Z,91.20
2023-05-15T06:30:11.377Z,89.90
2023-05-15T06:33:14.610Z,87.40
2023-05-15T06:36:19.216Z,86.00
2023-05-15T06:39:22.320Z,83.80
2023-05-15T06:42:25.525Z,82.00
2023-05-15T06:45:29.073Z,78.70
2023-05-15T06:48:32.338Z,74.10
2023-05-15T06:51:36.806Z,70.10
2023-05-15T06:54:40.542Z,68.00
2023-05-15T06:57:43.674Z,65.70
2023-05-15T07:00:46.731Z,62.50
2023-05-15T07:03:49.802Z,59.70
2023-05-15T07:06:54.290Z,56.70
2023-05-15T07:09:57.416Z,53.80
2023-05-15T07:13:00.567Z,53.10
2023-05-15T07:16:04.866Z,50.10
2023-05-15T07:19:10.506Z,47.70
2023-05-15T07:22:15.144Z,46.30
2023-05-15T07:25:18.350Z,44.80
2023-05-15T07:28:21.691Z,43.60
2023-05-15T07:31:25.148Z,41.00
2023-05-15T07:34:28.288Z,38.90
2023-05-15T07:37:32.736Z,36.60
2023-05-15T07:40:35.869Z,34.40
2023-05-15T07:43:38.952Z,33.40
2023-05-15T07:46:42.068Z,32.50
2023-05-15T07:49:45.183Z,31.00
2023-05-15T07:52:49.663Z,30.50
2023-05-15T07:55:52.945Z,29.80
2023-05-15T07:58:56.177Z,28.30
2023-05-15T08:01:59.291Z,27.70
2023-05-15T08:05:02.369Z,26.80
2023-05-15T08:08:06.973Z,26.90
2023-05-15T08:11:10.106Z,26.30
2023-05-15T08:14:13.876Z,26.50
2023-05-15T08:17:17.211Z,26.20
2023-05-15T08:20:20.306Z,27.60
2023-05-15T08:23:24.851Z,27.50
2023-05-15T08:26:28.089Z,27.80
2023-05-15T08:29:31.285Z,31.00
2023-05-15T08:32:34.455Z,34.00
2023-05-15T08:35:37.862Z,35.50
2023-05-15T08:38:42.547Z,37.00
2023-05-15T08:41:52.280Z,38.50
2023-05-15T08:44:56.585Z,40.20
2023-05-15T08:48:01.745Z,40.90
2023-05-15T08:51:05.499Z,39.20
2023-05-15T08:54:10.605Z,41.90
2023-05-15T08:57:13.854Z,47.40
2023-05-15T09:00:21.007Z,45.80
2023-05-15T09:03:24.471Z,44.90
2023-05-15T09:06:29.160Z,40.70
2023-05-15T09:09:34.320Z,42.40
2023-05-15T09:12:42.645Z,43.50
2023-05-15T09:15:47.779Z,44.60
2023-05-15T09:18:51.392Z,43.70
2023-05-15T09:21:54.620Z,42.10
2023-05-15T09:24:59.094Z,42.30
2023-05-15T09:28:02.572Z,40.70
2023-05-15T09:31:06.515Z,41.60
2023-05-15T09:34:10.304Z,42.10
2023-05-15T09:37:31.115Z,40.80
2023-05-15T09:40:35.782Z,42.00
2023-05-15T09:43:40.128Z,43.10
2023-05-15T09:46:44.485Z,44.50
2023-05-15T09:49:47.979Z,44.20
2023-05-15T09:52:51.768Z,43.10
2023-05-15T09:55:56.327Z,41.10
2023-05-15T09:59:00.433Z,40.70
2023-05-15T10:02:03.688Z,39.10
2023-05-15T10:05:07.068Z,40.40
2023-05-15T10:08:10.544Z,41.60
2023-05-15T10:11:15.307Z,40.80
2023-05-15T10:14:19.663Z,39.50
2023-05-15T10:17:23.697Z,41.70
2023-05-15T10:20:27.733Z,42.10
2023-05-15T10:23:32.900Z,42.00
2023-05-15T10:26:39.902Z,42.30
2023-05-15T10:29:43.759Z,40.90
2023-05-15T10:32:47.769Z,41.90
2023-05-15T10:35:52.179Z,42.80
2023-05-15T10:38:55.468Z,41.60
2023-05-15T10:42:01.306Z,41.60
2023-05-15T10:45:04.672Z,42.40
2023-05-15T10:48:12.267Z,43.70
2023-05-15T10:51:17.542Z,43.60
2023-05-15T10:54:22.891Z,42.80
2023-05-15T10:57:31.373Z,40.40
2023-05-15T11:00:34.604Z,42.40
2023-05-15T11:03:48.649Z,42.30
2023-05-15T11:07:13.106Z,41.50
2023-05-15T11:10:37.762Z,40.40
2023-05-15T11:14:15.402Z,40.50
2023-05-15T11:17:19.362Z,41.10
2023-05-15T11:20:35.248Z,41.50
2023-05-15T11:23:41.987Z,41.20
2023-05-15T11:26:45.184Z,41.00
2023-05-15T11:30:12.728Z,41.60
2023-05-15T11:33:17.761Z,42.20
2023-05-15T11:36:25.964Z,42.40
2023-05-15T11:39:29.491Z,42.30
2023-05-15T11:42:33.514Z,42.60
2023-05-15T11:45:40.632Z,40.00
2023-05-15T11:48:47.687Z,39.50
2023-05-15T11:51:52.393Z,38.90
2023-05-15T11:54:56.189Z,40.60
2023-05-15T11:58:00.751Z,40.40
2023-05-15T12:01:05.362Z,38.80
2023-05-15T12:04:14.321Z,38.80
2023-05-15T12:07:18.848Z,39.70
2023-05-15T12:10:22.082Z,39.10
2023-05-15T12:13:26.296Z,40.40
2023-05-15T12:16:31.034Z,39.50
2023-05-15T12:19:35.950Z,40.20
2023-05-15T12:22:39.877Z,40.20
2023-05-15T12:25:44.541Z,39.30
2023-05-15T12:28:47.788Z,38.60
2023-05-15T12:31:54.116Z,38.40
2023-05-15T12:34:58.117Z,39.40
2023-05-15T12:38:01.363Z,38.40
2023-05-15T12:41:04.572Z,38.90
2023-05-15T12:44:07.785Z,39.00
2023-05-15T12:47:15.328Z,39.10
2023-05-15T12:50:19.350Z,39.00
2023-05-15T12:53:23.204Z,40.50
2023-05-15T12:56:26.425Z,40.30
2023-05-15T12:59:30.874Z,39.70
2023-05-15T13:02:35.454Z,39.70
2023-05-15T13:05:39.671Z,38.90
2023-05-15T13:08:44.259Z,40.00
2023-05-15T13:11:48.278Z,38.00
2023-05-15T13:14:51.427Z,38.80
2023-05-15T13:18:00.246Z,38.30
2023-05-15T13:21:03.761Z,39.70
2023-05-15T13:24:10.014Z,39.10
2023-05-15T13:27:13.165Z,39.10
2023-05-15T13:30:16.724Z,39.10
2023-05-15T13:33:21.324Z,38.60
2023-05-15T13:36:24.830Z,38.80
2023-05-15T13:39:27.986Z,38.30
2023-05-15T13:42:31.246Z,37.60
2023-05-15T13:45:34.632Z,38.20
2023-05-15T13:48:39.192Z,37.40
2023-05-15T13:51:42.605Z,37.50
2023-05-15T13:54:45.784Z,40.30
2023-05-15T13:57:48.990Z,42.20
2023-05-15T14:00:52.366Z,42.00
2023-05-15T14:03:56.924Z,41.70
2023-05-15T14:07:00.259Z,42.10
2023-05-15T14:10:03.892Z,41.80
2023-05-15T14:13:07.059Z,42.30
2023-05-15T14:16:10.214Z,42.30
2023-05-15T14:19:14.750Z,42.70
2023-05-15T14:22:17.907Z,42.20
2023-05-15T14:25:20.978Z,40.30
2023-05-15T14:28:24.101Z,38.90
2023-05-15T14:31:27.527Z,38.80
2023-05-15T14:34:32.554Z,38.00
2023-05-15T14:37:35.763Z,38.60
2023-05-15T14:40:38.974Z,39.70
2023-05-15T14:43:42.096Z,42.40
2023-05-15T14:46:45.562Z,41.80
2023-05-15T14:49:50.163Z,43.10
2023-05-15T14:52:53.348Z,46.10
2023-05-15T14:55:58.517Z,46.40
2023-05-15T14:59:01.646Z,44.20
2023-05-15T15:02:04.959Z,45.20
2023-05-15T15:05:10.551Z,43.40
2023-05-15T15:08:13.760Z,44.60
2023-05-15T15:11:17.056Z,45.80
2023-05-15T15:14:20.252Z,44.50
2023-05-15T15:17:23.618Z,43.70
2023-05-15T15:20:29.139Z,40.80
2023-05-15T15:23:32.360Z,40.80
2023-05-15T15:26:35.494Z,49.10
2023-05-15T15:29:38.691Z,46.90
2023-05-15T15:32:44.161Z,46.60
2023-05-15T15:35:48.719Z,46.80
2023-05-15T15:38:51.768Z,50.10
2023-05-15T15:41:54.977Z,50.50
2023-05-15T15:44:58.199Z,52.20
2023-05-15T15:48:01.366Z,51.40
2023-05-15T15:51:06.553Z,49.20
2023-05-15T15:54:09.616Z,51.10
2023-05-15T15:57:13.056Z,50.50
2023-05-15T16:00:16.886Z,50.70
2023-05-15T16:03:20.085Z,51.80
2023-05-15T16:06:24.630Z,53.40
2023-05-15T16:09:27.755Z,52.60
2023-05-15T16:12:30.906Z,53.20
2023-05-15T16:15:34.065Z,54.50
2023-05-15T16:18:37.438Z,55.20
2023-05-15T16:21:42.023Z,55.40
2023-05-15T16:24:45.064Z,56.00
2023-05-15T16:27:48.203Z,56.40
2023-05-15T16:30:52.154Z,56.80
2023-05-15T16:33:55.458Z,56.70
2023-05-15T16:36:59.988Z,55.70
2023-05-15T16:40:04.136Z,56.40
2023-05-15T16:43:10.295Z,57.40
2023-05-15T16:46:13.472Z,57.50
2023-05-15T16:49:16.679Z,56.80
2023-05-15T16:52:21.465Z,57.10
2023-05-15T16:55:24.638Z,57.50
2023-05-15T16:58:27.792Z,58.50
2023-05-15T17:01:31.168Z,59.30
2023-05-15T17:04:35.351Z,59.70
2023-05-15T17:07:40.405Z,60.70
2023-05-15T17:10:43.534Z,60.70
2023-05-15T17:13:46.709Z,60.40
2023-05-15T17:16:49.947Z,60.70
2023-05-15T17:19:53.188Z,61.30
2023-05-15T17:22:58.160Z,61.80
2023-05-15T17:26:01.297Z,61.70
2023-05-15T17:29:05.723Z,62.50
2023-05-15T17:32:09.450Z,62.80
2023-05-15T17:35:12.616Z,64.10
2023-05-15T17:38:17.186Z,63.80
2023-05-15T17:41:22.128Z,64.20
2023-05-15T17:44:27.945Z,64.40
2023-05-15T17:47:31.053Z,64.10
2023-05-15T17:50:37.979Z,64.50
2023-05-15T17:53:42.546Z,64.50
2023-05-15T17:56:45.785Z,64.80
2023-05-15T17:59:48.937Z,64.90
2023-05-15T18:02:52.193Z,65.40
2023-05-15T18:05:55.316Z,65.90
2023-05-15T18:09:00.879Z,66.60
2023-05-15T18:12:04.134Z,67.40
2023-05-15T18:15:09.483Z,68.10
2023-05-15T18:18:12.597Z,68.80
2023-05-15T18:21:16.188Z,69.60
2023-05-15T18:24:20.844Z,70.70
2023-05-15T18:27:23.986Z,71.60
2023-05-15T18:30:27.080Z,72.40
2023-05-15T18:33:30.279Z,73.50
2023-05-15T18:36:33.378Z,74.30
2023-05-15T18:39:39.961Z,75.30
2023-05-15T18:42:43.034Z,75.70
2023-05-15T18:45:46.433Z,76.40
2023-05-15T18:48:49.558Z,77.00
2023-05-15T18:51:52.971Z,78.00
2023-05-15T18:54:57.964Z,79.20
2023-05-15T18:58:01.107Z,80.50
2023-05-15T19:01:04.568Z,81.60
2023-05-15T19:04:08.347Z,83.20
2023-05-15T19:07:11.436Z,83.20
2023-05-15T19:10:16.116Z,83.70
2023-05-15T19:13:19.340Z,84.80
2023-05-15T19:16:22.577Z,85.90
2023-05-15T19:19:26.113Z,86.60
2023-05-15T19:22:29.176Z,87.00
2023-05-15T19:25:33.736Z,88.00
2023-05-15T19:28:36.883Z,89.40
2023-05-15T19:31:40.099Z,90.00
2023-05-15T19:34:43.204Z,90.40
2023-05-15T19:37:46.410Z,90.90
2023-05-15T19:40:50.904Z,91.30
2023-05-15T19:43:54.083Z,91.70
2023-05-15T19:46:57.344Z,91.90
2023-05-15T19:50:00.551Z,92.30
2023-05-15T19:53:03.618Z,92.70
2023-05-15T19:56:08.527Z,93.10
2023-05-15T19:59:11.839Z,93.70
2023-05-15T20:02:15.197Z,93.90
2023-05-15T20:05:18.839Z,94.40
2023-05-15T20:08:22.124Z,94.40
2023-05-15T20:11:26.750Z,94.80
2023-05-15T20:14:29.877Z,95.30
2023-05-15T20:17:34.922Z,95.70
2023-05-15T20:20:38.197Z,96.20
2023-05-15T20:23:41.313Z,96.90
2023-05-15T20:26:46.040Z,97.30
2023-05-15T20:29:49.092Z,97.70
2023-05-15T20:32:52.417Z,98.00
2023-05-15T20:35:55.675Z,98.20
2023-05-15T20:38:58.987Z,98.50
2023-05-15T20:42:03.498Z,98.90
2023-05-15T20:45:08.648Z,99.30
2023-05-15T20:48:11.992Z,99.70
2023-05-15T20:51:17.878Z,99.90
2023-05-15T20:54:20.992Z,99.90
2023-05-15T20:57:25.451Z,99.90
2023-05-15T21:00:28.797Z,99.90
2023-05-15T21:03:32.175Z,99.90
2023-05-15T21:06:35.491Z,99.90
2023-05-15T21:09:38.615Z,99.90
2023-05-15T21:12:43.234Z,99.90
2023-05-15T21:15:46.812Z,99.90
2023-05-15T21:18:49.954Z,99.90
2023-05-15T21:21:53.044Z,99.90
2023-05-15T21:24:56.171Z,99.90
2023-05-15T21:28:00.650Z,99.90
2023-05-15T21:31:08.253Z,99.90
2023-05-15T21:34:11.535Z,99.90
2023-05-15T21:37:14.693Z,99.90
2023-05-15T21:40:18.003Z,99.90
2023-05-15T21:43:22.522Z,99.90
2023-05-15T21:46:25.708Z,99.90
2023-05-15T21:49:28.793Z,99.90
2023-05-15T21:52:31.921Z,99.90
2023-05-15T21:55:35.087Z,99.90
2023-05-15T21:58:39.647Z,99.90
2023-05-15T22:01:42.838Z,99.90
2023-05-15T22:04:46.145Z,99.90
2023-05-15T22:07:49.300Z,99.90
2023-05-15T22:10:52.459Z,99.90
2023-05-15T22:13:57.021Z,99.90
2023-05-15T22:17:00.125Z,99.90
2023-05-15T22:20:07.968Z,99.90
2023-05-15T22:23:11.572Z,99.90
2023-05-15T22:26:14.675Z,99.90
2023-05-15T22:29:19.402Z,99.90
2023-05-15T22:32:25.683Z,99.90
2023-05-15T22:35:29.329Z,99.90
2023-05-15T22:38:32.642Z,99.90
2023-05-15T22:41:35.743Z,99.90
2023-05-15T22:44:40.231Z,99.90
2023-05-15T22:47:43.464Z,99.90
2023-05-15T22:50:46.574Z,99.90
2023-05-15T22:53:49.622Z,99.90
2023-05-15T22:56:53.608Z,99.90
2023-05-15T22:59:58.250Z,99.90
2023-05-15T23:03:01.440Z,99.90
2023-05-15T23:06:04.745Z,99.90
2023-05-15T23:09:08.524Z,99.90
2023-05-15T23:12:11.652Z,99.90
2023-05-15T23:15:16.320Z,99.90
2023-05-15T23:18:19.619Z,99.90
2023-05-15T23:21:22.802Z,99.90
2023-05-15T23:24:26.110Z,99.90
2023-05-15T23:27:29.169Z,99.90
2023-05-15T23:30:34.043Z,99.90
2023-05-15T23:33:38.152Z,99.90
2023-05-15T23:36:41.315Z,99.90
2023-05-15T23:39:44.386Z,99.90
2023-05-15T23:42:47.520Z,99.90
2023-05-15T23:45:52.062Z,99.90
2023-05-15T23:48:55.152Z,99.90
2023-05-15T23:51:58.235Z,99.90
2023-05-15T23:55:01.878Z,99.90
2023-05-15T23:58:05.143Z,99.90
